الصفحة الرئيسية
METAR-TAF:

METAR-TAF

مطار :

Albert, فرنسا

دائرة عرض: 49-58-21N, خط طول: 002-41-29E, ارتفاع: 111 متر

مراقبة الطقس الحالي

تاريخ ووقت الإصدار 20 دقيقة قبل الساعة 12:00UTC
ريح 3 عقدة من الشرق, الاتجاه يتراوح بين الشمال/الشمال الشرقي و الجنوب/الجنوب الشرقي
درجة الحرارة 17°درجة مئوية
الرطوبة 55%
ضغط 1034 hPa
الرؤية 10 كم أو أكثر
الغيوم لا تقل 1500 م ولا وجود لمزنة ركامية السحاب الأسود

METAR: LFAQ 261200Z AUTO 08003KT 030V150 CAVOK 17/08 Q1034 NOSIG

زمن: 14:20 (12:20 UTC)

توقعات

تاريخ ووقت الإصدار 1ساعة و 20 دقيقة قبل الساعة 11:00UTC
التوقعات صالحة من26 الساعة 12 UTC إلى 26 الساعة 21 UTC
ريح 2 عقدةمن اتجاهات متغيرة
الرؤية 10 كم أو أكثر
الغيوم لا تقل 1500 م ولا وجود لمزنة ركامية السحاب الأسود

TAF: LFAQ 261100Z 2612/2621 VRB02KT CAVOK

أرصاد الطقس والتوقعات من أكثر من 4000 مطار (تقارير الطقس للمطار METAR والتنبؤ بالطقس بالمطارTAF).

المحطات المتاحة هي النقط الصفراء والحمراء على الخريطة.

حرك المؤشر فوق النقطة لمعرفة اسم المحطة.

ثم انقر لمعرفة أرصاد وتوقعات الطقس.

لتغيير الخارطة: اضغط على الأزرار الخضراء مع رمز الصليب الأسود للتكبير. على الزر الأخضر مع شرطة للتصغير، أو على الأسهم الخضراء للخرائط المجاورة.


METAR-TAF: